sensor_id;sensor_type;location;lat;lon;timestamp;P1;durP1;ratioP1;P2;durP2;ratioP2
17361;SDS011;8798;51.938;4.348;2022-08-01T00:01:42;6.17;;;2.40;;
17361;SDS011;8798;51.938;4.348;2022-08-01T00:04:10;3.90;;;2.50;;
17361;SDS011;8798;51.938;4.348;2022-08-01T00:06:38;5.27;;;2.00;;
17361;SDS011;8798;51.938;4.348;2022-08-01T00:09:05;3.10;;;2.20;;
17361;SDS011;8798;51.938;4.348;2022-08-01T00:11:35;4.37;;;2.10;;
17361;SDS011;8798;51.938;4.348;2022-08-01T00:14:03;4.83;;;2.30;;
17361;SDS011;8798;51.938;4.348;2022-08-01T00:16:31;3.70;;;2.00;;
17361;SDS011;8798;51.938;4.348;2022-08-01T00:18:59;3.77;;;1.90;;
17361;SDS011;8798;51.938;4.348;2022-08-01T00:21:27;3.80;;;1.83;;
17361;SDS011;8798;51.938;4.348;2022-08-01T00:23:54;2.87;;;1.80;;
17361;SDS011;8798;51.938;4.348;2022-08-01T00:26:22;2.80;;;1.63;;
17361;SDS011;8798;51.938;4.348;2022-08-01T00:28:51;2.63;;;1.70;;
17361;SDS011;8798;51.938;4.348;2022-08-01T00:31:19;2.27;;;1.60;;
17361;SDS011;8798;51.938;4.348;2022-08-01T00:33:47;2.50;;;1.60;;
17361;SDS011;8798;51.938;4.348;2022-08-01T00:36:15;4.03;;;2.13;;
17361;SDS011;8798;51.938;4.348;2022-08-01T00:38:42;2.93;;;1.90;;
17361;SDS011;8798;51.938;4.348;2022-08-01T00:41:10;3.20;;;1.83;;
17361;SDS011;8798;51.938;4.348;2022-08-01T00:43:38;3.77;;;2.10;;
17361;SDS011;8798;51.938;4.348;2022-08-01T00:46:07;3.40;;;1.73;;
17361;SDS011;8798;51.938;4.348;2022-08-01T00:48:35;3.37;;;1.87;;
17361;SDS011;8798;51.938;4.348;2022-08-01T00:51:03;3.53;;;2.03;;
17361;SDS011;8798;51.938;4.348;2022-08-01T00:53:31;2.63;;;1.70;;
17361;SDS011;8798;51.938;4.348;2022-08-01T00:56:17;5.90;;;2.53;;
17361;SDS011;8798;51.938;4.348;2022-08-01T00:58:46;4.70;;;2.50;;
17361;SDS011;8798;51.938;4.348;2022-08-01T01:01:16;5.20;;;2.53;;
17361;SDS011;8798;51.938;4.348;2022-08-01T01:03:47;4.97;;;2.30;;
17361;SDS011;8798;51.938;4.348;2022-08-01T01:06:33;5.33;;;2.37;;
17361;SDS011;8798;51.938;4.348;2022-08-01T01:09:15;3.60;;;2.20;;
17361;SDS011;8798;51.938;4.348;2022-08-01T01:11:51;2.57;;;1.50;;
17361;SDS011;8798;51.938;4.348;2022-08-01T01:14:30;2.67;;;1.13;;
17361;SDS011;8798;51.938;4.348;2022-08-01T01:17:06;1.23;;;0.87;;
17361;SDS011;8798;51.938;4.348;2022-08-01T01:19:36;1.60;;;0.77;;
17361;SDS011;8798;51.938;4.348;2022-08-01T01:22:18;1.70;;;0.83;;
17361;SDS011;8798;51.938;4.348;2022-08-01T01:24:58;1.70;;;0.60;;
17361;SDS011;8798;51.938;4.348;2022-08-01T01:27:39;0.83;;;0.60;;
17361;SDS011;8798;51.938;4.348;2022-08-01T01:30:16;0.70;;;0.50;;
17361;SDS011;8798;51.938;4.348;2022-08-01T01:32:45;0.60;;;0.60;;
17361;SDS011;8798;51.938;4.348;2022-08-01T01:35:17;1.30;;;0.67;;
17361;SDS011;8798;51.938;4.348;2022-08-01T01:37:51;1.00;;;0.80;;
17361;SDS011;8798;51.938;4.348;2022-08-01T01:40:23;1.57;;;0.80;;
17361;SDS011;8798;51.938;4.348;2022-08-01T01:42:53;0.93;;;0.80;;
17361;SDS011;8798;51.938;4.348;2022-08-01T01:45:24;2.23;;;1.10;;
17361;SDS011;8798;51.938;4.348;2022-08-01T01:47:53;1.33;;;1.10;;
17361;SDS011;8798;51.938;4.348;2022-08-01T01:50:24;1.50;;;1.20;;
17361;SDS011;8798;51.938;4.348;2022-08-01T01:52:52;1.30;;;1.20;;
17361;SDS011;8798;51.938;4.348;2022-08-01T01:55:23;1.70;;;1.40;;
17361;SDS011;8798;51.938;4.348;2022-08-01T01:57:52;2.83;;;1.50;;
17361;SDS011;8798;51.938;4.348;2022-08-01T02:00:22;2.97;;;1.77;;
17361;SDS011;8798;51.938;4.348;2022-08-01T02:02:53;1.73;;;1.33;;
17361;SDS011;8798;51.938;4.348;2022-08-01T02:05:23;2.37;;;1.57;;
17361;SDS011;8798;51.938;4.348;2022-08-01T02:07:52;2.97;;;1.33;;
17361;SDS011;8798;51.938;4.348;2022-08-01T02:10:25;2.73;;;1.40;;
17361;SDS011;8798;51.938;4.348;2022-08-01T02:12:54;2.67;;;1.43;;
17361;SDS011;8798;51.938;4.348;2022-08-01T02:15:27;1.83;;;1.50;;
17361;SDS011;8798;51.938;4.348;2022-08-01T02:17:57;6.93;;;1.60;;
17361;SDS011;8798;51.938;4.348;2022-08-01T02:20:26;3.07;;;1.70;;
17361;SDS011;8798;51.938;4.348;2022-08-01T02:22:58;2.93;;;1.67;;
17361;SDS011;8798;51.938;4.348;2022-08-01T02:25:34;2.97;;;1.60;;
17361;SDS011;8798;51.938;4.348;2022-08-01T02:28:28;1.70;;;1.60;;
17361;SDS011;8798;51.938;4.348;2022-08-01T02:31:02;3.87;;;1.40;;
17361;SDS011;8798;51.938;4.348;2022-08-01T02:33:33;2.20;;;1.30;;
17361;SDS011;8798;51.938;4.348;2022-08-01T02:36:04;1.30;;;1.20;;
17361;SDS011;8798;51.938;4.348;2022-08-01T02:38:54;2.30;;;1.40;;
17361;SDS011;8798;51.938;4.348;2022-08-01T02:41:24;3.00;;;1.30;;
17361;SDS011;8798;51.938;4.348;2022-08-01T02:43:56;2.00;;;1.10;;
17361;SDS011;8798;51.938;4.348;2022-08-01T02:46:29;2.50;;;1.30;;
17361;SDS011;8798;51.938;4.348;2022-08-01T02:49:02;1.70;;;0.90;;
17361;SDS011;8798;51.938;4.348;2022-08-01T02:51:34;2.30;;;1.03;;
17361;SDS011;8798;51.938;4.348;2022-08-01T02:54:03;1.73;;;1.00;;
17361;SDS011;8798;51.938;4.348;2022-08-01T02:56:34;1.00;;;0.83;;
17361;SDS011;8798;51.938;4.348;2022-08-01T02:59:04;1.07;;;0.80;;
17361;SDS011;8798;51.938;4.348;2022-08-01T03:01:36;1.57;;;0.80;;
17361;SDS011;8798;51.938;4.348;2022-08-01T03:04:08;0.83;;;0.70;;
17361;SDS011;8798;51.938;4.348;2022-08-01T03:06:37;0.60;;;0.60;;
17361;SDS011;8798;51.938;4.348;2022-08-01T03:09:10;1.80;;;1.00;;
17361;SDS011;8798;51.938;4.348;2022-08-01T03:11:42;1.37;;;0.73;;
17361;SDS011;8798;51.938;4.348;2022-08-01T03:14:11;1.13;;;0.50;;
17361;SDS011;8798;51.938;4.348;2022-08-01T03:16:42;1.10;;;0.70;;
17361;SDS011;8798;51.938;4.348;2022-08-01T03:19:13;0.77;;;0.67;;
17361;SDS011;8798;51.938;4.348;2022-08-01T03:21:43;1.80;;;0.70;;
17361;SDS011;8798;51.938;4.348;2022-08-01T03:24:12;1.23;;;0.57;;
17361;SDS011;8798;51.938;4.348;2022-08-01T03:26:41;1.10;;;0.60;;
17361;SDS011;8798;51.938;4.348;2022-08-01T03:29:12;0.60;;;0.53;;
17361;SDS011;8798;51.938;4.348;2022-08-01T03:31:44;0.67;;;0.60;;
17361;SDS011;8798;51.938;4.348;2022-08-01T03:34:13;0.93;;;0.60;;
17361;SDS011;8798;51.938;4.348;2022-08-01T03:36:43;1.10;;;0.53;;
17361;SDS011;8798;51.938;4.348;2022-08-01T03:39:15;0.80;;;0.60;;
17361;SDS011;8798;51.938;4.348;2022-08-01T03:41:46;0.60;;;0.50;;
17361;SDS011;8798;51.938;4.348;2022-08-01T03:44:23;0.50;;;0.50;;
17361;SDS011;8798;51.938;4.348;2022-08-01T03:46:58;0.60;;;0.50;;
17361;SDS011;8798;51.938;4.348;2022-08-01T03:49:29;0.70;;;0.60;;
17361;SDS011;8798;51.938;4.348;2022-08-01T03:51:58;0.80;;;0.70;;
17361;SDS011;8798;51.938;4.348;2022-08-01T03:54:30;1.87;;;0.63;;
17361;SDS011;8798;51.938;4.348;2022-08-01T03:57:00;0.80;;;0.50;;
17361;SDS011;8798;51.938;4.348;2022-08-01T03:59:29;1.00;;;0.60;;
17361;SDS011;8798;51.938;4.348;2022-08-01T04:02:00;0.77;;;0.50;;
17361;SDS011;8798;51.938;4.348;2022-08-01T04:04:30;2.50;;;0.90;;
17361;SDS011;8798;51.938;4.348;2022-08-01T04:06:59;1.03;;;0.63;;
17361;SDS011;8798;51.938;4.348;2022-08-01T04:09:30;2.10;;;0.50;;
17361;SDS011;8798;51.938;4.348;2022-08-01T04:11:58;1.80;;;0.57;;
17361;SDS011;8798;51.938;4.348;2022-08-01T04:14:37;1.47;;;0.60;;
17361;SDS011;8798;51.938;4.348;2022-08-01T04:17:06;2.23;;;0.50;;
17361;SDS011;8798;51.938;4.348;2022-08-01T04:19:33;1.03;;;0.63;;
17361;SDS011;8798;51.938;4.348;2022-08-01T04:22:01;1.00;;;0.57;;
17361;SDS011;8798;51.938;4.348;2022-08-01T04:24:30;0.80;;;0.60;;
17361;SDS011;8798;51.938;4.348;2022-08-01T04:27:00;0.80;;;0.70;;
17361;SDS011;8798;51.938;4.348;2022-08-01T04:29:32;2.93;;;0.73;;
17361;SDS011;8798;51.938;4.348;2022-08-01T04:32:00;0.80;;;0.53;;
17361;SDS011;8798;51.938;4.348;2022-08-01T04:34:31;0.50;;;0.50;;
17361;SDS011;8798;51.938;4.348;2022-08-01T04:37:00;0.60;;;0.40;;
17361;SDS011;8798;51.938;4.348;2022-08-01T04:39:30;1.20;;;0.67;;
17361;SDS011;8798;51.938;4.348;2022-08-01T04:42:16;0.63;;;0.57;;
17361;SDS011;8798;51.938;4.348;2022-08-01T04:44:59;0.40;;;0.40;;
17361;SDS011;8798;51.938;4.348;2022-08-01T04:47:28;1.00;;;0.60;;
17361;SDS011;8798;51.938;4.348;2022-08-01T04:49:59;1.30;;;0.40;;
17361;SDS011;8798;51.938;4.348;2022-08-01T04:52:32;1.60;;;0.50;;
17361;SDS011;8798;51.938;4.348;2022-08-01T04:55:00;0.93;;;0.70;;
17361;SDS011;8798;51.938;4.348;2022-08-01T04:57:28;0.50;;;0.50;;
17361;SDS011;8798;51.938;4.348;2022-08-01T04:59:56;0.90;;;0.63;;
17361;SDS011;8798;51.938;4.348;2022-08-01T05:02:24;1.47;;;0.70;;
17361;SDS011;8798;51.938;4.348;2022-08-01T05:04:54;1.77;;;0.60;;
17361;SDS011;8798;51.938;4.348;2022-08-01T05:07:23;1.13;;;0.70;;
17361;SDS011;8798;51.938;4.348;2022-08-01T05:09:51;1.50;;;0.57;;
17361;SDS011;8798;51.938;4.348;2022-08-01T05:12:19;0.70;;;0.70;;
17361;SDS011;8798;51.938;4.348;2022-08-01T05:14:47;1.13;;;0.60;;
17361;SDS011;8798;51.938;4.348;2022-08-01T05:17:15;0.70;;;0.50;;
17361;SDS011;8798;51.938;4.348;2022-08-01T05:19:43;0.77;;;0.70;;
17361;SDS011;8798;51.938;4.348;2022-08-01T05:22:10;1.73;;;0.80;;
17361;SDS011;8798;51.938;4.348;2022-08-01T05:24:40;0.80;;;0.70;;
17361;SDS011;8798;51.938;4.348;2022-08-01T05:27:10;0.80;;;0.77;;
17361;SDS011;8798;51.938;4.348;2022-08-01T05:29:38;1.43;;;0.90;;
17361;SDS011;8798;51.938;4.348;2022-08-01T05:32:10;0.87;;;0.87;;
17361;SDS011;8798;51.938;4.348;2022-08-01T05:34:37;1.50;;;0.87;;
17361;SDS011;8798;51.938;4.348;2022-08-01T05:37:05;1.27;;;0.90;;
17361;SDS011;8798;51.938;4.348;2022-08-01T05:39:33;0.80;;;0.80;;
17361;SDS011;8798;51.938;4.348;2022-08-01T05:42:02;1.70;;;1.00;;
17361;SDS011;8798;51.938;4.348;2022-08-01T05:44:31;1.73;;;1.10;;
17361;SDS011;8798;51.938;4.348;2022-08-01T05:46:58;1.20;;;0.80;;
17361;SDS011;8798;51.938;4.348;2022-08-01T05:49:26;1.87;;;1.00;;
17361;SDS011;8798;51.938;4.348;2022-08-01T05:51:54;1.57;;;1.00;;
17361;SDS011;8798;51.938;4.348;2022-08-01T05:54:22;2.40;;;1.10;;
17361;SDS011;8798;51.938;4.348;2022-08-01T05:56:50;1.13;;;0.90;;
17361;SDS011;8798;51.938;4.348;2022-08-01T05:59:19;2.67;;;1.23;;
17361;SDS011;8798;51.938;4.348;2022-08-01T06:01:47;2.37;;;1.10;;
17361;SDS011;8798;51.938;4.348;2022-08-01T06:04:15;4.47;;;1.47;;
17361;SDS011;8798;51.938;4.348;2022-08-01T06:06:43;2.80;;;1.50;;
17361;SDS011;8798;51.938;4.348;2022-08-01T06:09:10;2.37;;;1.30;;
17361;SDS011;8798;51.938;4.348;2022-08-01T06:11:38;3.50;;;1.37;;
17361;SDS011;8798;51.938;4.348;2022-08-01T06:14:06;2.43;;;0.97;;
17361;SDS011;8798;51.938;4.348;2022-08-01T06:16:35;4.27;;;1.30;;
17361;SDS011;8798;51.938;4.348;2022-08-01T06:19:03;2.63;;;1.37;;
17361;SDS011;8798;51.938;4.348;2022-08-01T06:21:31;3.13;;;1.30;;
17361;SDS011;8798;51.938;4.348;2022-08-01T06:23:59;2.17;;;1.53;;
17361;SDS011;8798;51.938;4.348;2022-08-01T06:26:26;1.80;;;1.20;;
17361;SDS011;8798;51.938;4.348;2022-08-01T06:28:54;2.17;;;1.33;;
17361;SDS011;8798;51.938;4.348;2022-08-01T06:31:22;1.63;;;1.13;;
17361;SDS011;8798;51.938;4.348;2022-08-01T06:33:51;2.57;;;1.13;;
17361;SDS011;8798;51.938;4.348;2022-08-01T06:36:19;1.23;;;1.10;;
17361;SDS011;8798;51.938;4.348;2022-08-01T06:38:47;1.93;;;1.00;;
17361;SDS011;8798;51.938;4.348;2022-08-01T06:41:14;1.37;;;1.07;;
17361;SDS011;8798;51.938;4.348;2022-08-01T06:43:42;1.90;;;1.10;;
17361;SDS011;8798;51.938;4.348;2022-08-01T06:46:11;1.53;;;1.00;;
17361;SDS011;8798;51.938;4.348;2022-08-01T06:48:44;2.40;;;1.03;;
17361;SDS011;8798;51.938;4.348;2022-08-01T06:51:13;1.37;;;1.00;;
17361;SDS011;8798;51.938;4.348;2022-08-01T06:53:44;1.73;;;1.30;;
17361;SDS011;8798;51.938;4.348;2022-08-01T06:56:12;2.43;;;1.30;;
17361;SDS011;8798;51.938;4.348;2022-08-01T06:58:40;1.93;;;1.10;;
17361;SDS011;8798;51.938;4.348;2022-08-01T07:01:12;1.67;;;1.37;;
17361;SDS011;8798;51.938;4.348;2022-08-01T07:03:43;2.37;;;1.57;;
17361;SDS011;8798;51.938;4.348;2022-08-01T07:06:21;2.47;;;1.30;;
17361;SDS011;8798;51.938;4.348;2022-08-01T07:08:50;1.50;;;1.37;;
17361;SDS011;8798;51.938;4.348;2022-08-01T07:11:18;3.90;;;1.60;;
17361;SDS011;8798;51.938;4.348;2022-08-01T07:13:46;1.63;;;1.17;;
17361;SDS011;8798;51.938;4.348;2022-08-01T07:16:14;2.30;;;1.53;;
17361;SDS011;8798;51.938;4.348;2022-08-01T07:18:44;3.67;;;1.63;;
17361;SDS011;8798;51.938;4.348;2022-08-01T07:21:12;2.63;;;1.57;;
17361;SDS011;8798;51.938;4.348;2022-08-01T07:24:01;4.50;;;2.13;;
17361;SDS011;8798;51.938;4.348;2022-08-01T07:26:39;3.53;;;1.97;;
17361;SDS011;8798;51.938;4.348;2022-08-01T07:29:19;4.77;;;2.03;;
17361;SDS011;8798;51.938;4.348;2022-08-01T07:31:51;3.57;;;2.53;;
17361;SDS011;8798;51.938;4.348;2022-08-01T07:34:19;4.63;;;1.87;;
17361;SDS011;8798;51.938;4.348;2022-08-01T07:36:47;3.93;;;1.90;;
17361;SDS011;8798;51.938;4.348;2022-08-01T07:39:16;4.47;;;2.27;;
17361;SDS011;8798;51.938;4.348;2022-08-01T07:41:44;4.13;;;2.87;;
17361;SDS011;8798;51.938;4.348;2022-08-01T07:44:32;5.07;;;2.73;;
17361;SDS011;8798;51.938;4.348;2022-08-01T07:47:00;4.63;;;2.50;;
17361;SDS011;8798;51.938;4.348;2022-08-01T07:49:28;5.43;;;2.63;;
17361;SDS011;8798;51.938;4.348;2022-08-01T07:52:00;4.13;;;3.17;;
17361;SDS011;8798;51.938;4.348;2022-08-01T07:54:39;6.07;;;3.10;;
17361;SDS011;8798;51.938;4.348;2022-08-01T07:57:07;5.83;;;2.73;;
17361;SDS011;8798;51.938;4.348;2022-08-01T07:59:35;4.93;;;3.00;;
17361;SDS011;8798;51.938;4.348;2022-08-01T08:02:03;4.03;;;2.60;;
17361;SDS011;8798;51.938;4.348;2022-08-01T08:04:31;3.60;;;2.60;;
17361;SDS011;8798;51.938;4.348;2022-08-01T08:06:59;4.43;;;2.40;;
17361;SDS011;8798;51.938;4.348;2022-08-01T08:09:27;4.67;;;2.70;;
17361;SDS011;8798;51.938;4.348;2022-08-01T08:11:56;8.57;;;2.47;;
17361;SDS011;8798;51.938;4.348;2022-08-01T08:14:24;4.17;;;2.37;;
17361;SDS011;8798;51.938;4.348;2022-08-01T08:16:58;4.53;;;2.60;;
17361;SDS011;8798;51.938;4.348;2022-08-01T08:19:27;3.67;;;2.53;;
17361;SDS011;8798;51.938;4.348;2022-08-01T08:22:04;6.17;;;2.43;;
17361;SDS011;8798;51.938;4.348;2022-08-01T08:24:33;4.20;;;2.40;;
17361;SDS011;8798;51.938;4.348;2022-08-01T08:27:12;8.23;;;2.50;;
17361;SDS011;8798;51.938;4.348;2022-08-01T08:29:40;5.60;;;2.73;;
17361;SDS011;8798;51.938;4.348;2022-08-01T08:32:08;5.47;;;2.23;;
17361;SDS011;8798;51.938;4.348;2022-08-01T08:34:36;5.23;;;2.60;;
17361;SDS011;8798;51.938;4.348;2022-08-01T08:37:04;4.17;;;2.60;;
17361;SDS011;8798;51.938;4.348;2022-08-01T08:39:34;5.07;;;2.07;;
17361;SDS011;8798;51.938;4.348;2022-08-01T08:42:07;4.83;;;1.90;;
17361;SDS011;8798;51.938;4.348;2022-08-01T08:44:38;2.57;;;1.60;;
17361;SDS011;8798;51.938;4.348;2022-08-01T08:47:10;2.23;;;1.80;;
17361;SDS011;8798;51.938;4.348;2022-08-01T08:49:45;3.80;;;1.60;;
17361;SDS011;8798;51.938;4.348;2022-08-01T08:52:15;1.67;;;1.20;;
17361;SDS011;8798;51.938;4.348;2022-08-01T08:54:44;3.53;;;1.73;;
17361;SDS011;8798;51.938;4.348;2022-08-01T08:57:13;2.27;;;1.40;;
17361;SDS011;8798;51.938;4.348;2022-08-01T08:59:43;1.57;;;1.10;;
17361;SDS011;8798;51.938;4.348;2022-08-01T09:02:12;2.90;;;1.40;;
17361;SDS011;8798;51.938;4.348;2022-08-01T09:04:40;2.90;;;1.27;;
17361;SDS011;8798;51.938;4.348;2022-08-01T09:07:08;1.93;;;1.00;;
17361;SDS011;8798;51.938;4.348;2022-08-01T09:09:38;2.07;;;1.20;;
17361;SDS011;8798;51.938;4.348;2022-08-01T09:12:07;1.80;;;1.30;;
17361;SDS011;8798;51.938;4.348;2022-08-01T09:14:45;3.70;;;1.40;;
17361;SDS011;8798;51.938;4.348;2022-08-01T09:17:15;3.57;;;1.10;;
17361;SDS011;8798;51.938;4.348;2022-08-01T09:19:44;1.73;;;1.07;;
17361;SDS011;8798;51.938;4.348;2022-08-01T09:22:14;3.90;;;1.20;;
17361;SDS011;8798;51.938;4.348;2022-08-01T09:24:56;3.83;;;1.03;;
17361;SDS011;8798;51.938;4.348;2022-08-01T09:27:25;3.37;;;1.47;;
17361;SDS011;8798;51.938;4.348;2022-08-01T09:29:55;2.17;;;0.90;;
17361;SDS011;8798;51.938;4.348;2022-08-01T09:32:36;1.77;;;1.00;;
17361;SDS011;8798;51.938;4.348;2022-08-01T09:35:24;3.67;;;1.10;;
17361;SDS011;8798;51.938;4.348;2022-08-01T09:38:12;1.07;;;0.80;;
17361;SDS011;8798;51.938;4.348;2022-08-01T09:40:45;4.20;;;1.30;;
17361;SDS011;8798;51.938;4.348;2022-08-01T09:43:15;3.27;;;1.00;;
17361;SDS011;8798;51.938;4.348;2022-08-01T09:45:45;3.63;;;1.00;;
17361;SDS011;8798;51.938;4.348;2022-08-01T09:48:18;3.37;;;1.20;;
17361;SDS011;8798;51.938;4.348;2022-08-01T09:50:54;6.80;;;1.73;;
17361;SDS011;8798;51.938;4.348;2022-08-01T09:53:41;1.53;;;0.90;;
17361;SDS011;8798;51.938;4.348;2022-08-01T09:56:18;3.33;;;0.90;;
17361;SDS011;8798;51.938;4.348;2022-08-01T09:58:54;1.73;;;0.93;;
17361;SDS011;8798;51.938;4.348;2022-08-01T10:01:28;3.33;;;1.20;;
17361;SDS011;8798;51.938;4.348;2022-08-01T10:04:09;3.80;;;1.08;;
17361;SDS011;8798;51.938;4.348;2022-08-01T10:06:38;3.42;;;0.90;;
17361;SDS011;8798;51.938;4.348;2022-08-01T10:09:09;1.88;;;0.82;;
17361;SDS011;8798;51.938;4.348;2022-08-01T10:11:39;1.73;;;0.70;;
17361;SDS011;8798;51.938;4.348;2022-08-01T10:14:10;1.73;;;1.00;;
17361;SDS011;8798;51.938;4.348;2022-08-01T10:16:45;1.90;;;0.90;;
17361;SDS011;8798;51.938;4.348;2022-08-01T10:19:20;2.35;;;0.90;;
17361;SDS011;8798;51.938;4.348;2022-08-01T10:21:49;2.60;;;0.90;;
17361;SDS011;8798;51.938;4.348;2022-08-01T10:24:23;0.80;;;0.67;;
17361;SDS011;8798;51.938;4.348;2022-08-01T10:26:54;2.00;;;0.80;;
17361;SDS011;8798;51.938;4.348;2022-08-01T10:29:35;1.10;;;0.60;;
17361;SDS011;8798;51.938;4.348;2022-08-01T10:32:26;1.75;;;0.90;;
17361;SDS011;8798;51.938;4.348;2022-08-01T10:34:54;3.42;;;1.15;;
17361;SDS011;8798;51.938;4.348;2022-08-01T10:37:23;2.45;;;0.90;;
17361;SDS011;8798;51.938;4.348;2022-08-01T10:39:52;1.75;;;0.75;;
17361;SDS011;8798;51.938;4.348;2022-08-01T10:42:44;2.57;;;1.07;;
17361;SDS011;8798;51.938;4.348;2022-08-01T10:45:13;4.47;;;1.00;;
17361;SDS011;8798;51.938;4.348;2022-08-01T10:47:47;2.45;;;1.00;;
17361;SDS011;8798;51.938;4.348;2022-08-01T10:50:21;4.28;;;1.05;;
17361;SDS011;8798;51.938;4.348;2022-08-01T10:53:06;2.97;;;1.00;;
17361;SDS011;8798;51.938;4.348;2022-08-01T10:55:49;2.50;;;1.00;;
17361;SDS011;8798;51.938;4.348;2022-08-01T10:58:21;3.10;;;1.08;;
17361;SDS011;8798;51.938;4.348;2022-08-01T11:03:57;2.58;;;1.20;;
17361;SDS011;8798;51.938;4.348;2022-08-01T11:06:35;2.22;;;0.88;;
17361;SDS011;8798;51.938;4.348;2022-08-01T11:09:24;3.08;;;1.30;;
17361;SDS011;8798;51.938;4.348;2022-08-01T11:12:03;1.67;;;1.02;;
17361;SDS011;8798;51.938;4.348;2022-08-01T11:17:56;3.25;;;1.30;;
17361;SDS011;8798;51.938;4.348;2022-08-01T11:20:31;3.00;;;0.90;;
17361;SDS011;8798;51.938;4.348;2022-08-01T11:23:16;3.72;;;1.30;;
17361;SDS011;8798;51.938;4.348;2022-08-01T11:26:06;1.50;;;0.90;;
17361;SDS011;8798;51.938;4.348;2022-08-01T11:28:36;1.90;;;1.23;;
17361;SDS011;8798;51.938;4.348;2022-08-01T11:31:25;2.95;;;1.23;;
17361;SDS011;8798;51.938;4.348;2022-08-01T11:34:02;2.50;;;1.05;;
17361;SDS011;8798;51.938;4.348;2022-08-01T11:36:31;3.33;;;1.25;;
17361;SDS011;8798;51.938;4.348;2022-08-01T11:39:19;2.85;;;1.08;;
17361;SDS011;8798;51.938;4.348;2022-08-01T11:41:47;1.10;;;0.90;;
17361;SDS011;8798;51.938;4.348;2022-08-01T11:44:17;1.73;;;0.93;;
17361;SDS011;8798;51.938;4.348;2022-08-01T11:46:54;4.10;;;1.33;;
17361;SDS011;8798;51.938;4.348;2022-08-01T11:52:26;1.48;;;0.80;;
17361;SDS011;8798;51.938;4.348;2022-08-01T11:54:56;1.48;;;0.90;;
17361;SDS011;8798;51.938;4.348;2022-08-01T11:57:26;2.42;;;0.82;;
17361;SDS011;8798;51.938;4.348;2022-08-01T12:00:00;2.88;;;0.88;;
17361;SDS011;8798;51.938;4.348;2022-08-01T12:02:34;1.40;;;1.02;;
17361;SDS011;8798;51.938;4.348;2022-08-01T12:05:03;1.10;;;0.60;;
17361;SDS011;8798;51.938;4.348;2022-08-01T12:07:39;2.60;;;0.90;;
17361;SDS011;8798;51.938;4.348;2022-08-01T12:10:08;1.05;;;0.80;;
17361;SDS011;8798;51.938;4.348;2022-08-01T12:12:41;2.45;;;0.82;;
17361;SDS011;8798;51.938;4.348;2022-08-01T12:15:10;1.60;;;0.77;;
17361;SDS011;8798;51.938;4.348;2022-08-01T12:17:39;1.55;;;0.80;;
17361;SDS011;8798;51.938;4.348;2022-08-01T12:20:23;3.63;;;1.08;;
17361;SDS011;8798;51.938;4.348;2022-08-01T12:22:57;3.47;;;0.80;;
17361;SDS011;8798;51.938;4.348;2022-08-01T12:25:26;4.25;;;1.35;;
17361;SDS011;8798;51.938;4.348;2022-08-01T12:27:54;2.08;;;1.08;;
17361;SDS011;8798;51.938;4.348;2022-08-01T12:30:28;2.28;;;0.90;;
17361;SDS011;8798;51.938;4.348;2022-08-01T12:33:01;1.40;;;0.85;;
17361;SDS011;8798;51.938;4.348;2022-08-01T12:35:30;1.83;;;0.95;;
17361;SDS011;8798;51.938;4.348;2022-08-01T12:38:04;1.60;;;0.80;;
17361;SDS011;8798;51.938;4.348;2022-08-01T12:40:34;2.03;;;0.90;;
17361;SDS011;8798;51.938;4.348;2022-08-01T12:43:10;2.67;;;0.90;;
17361;SDS011;8798;51.938;4.348;2022-08-01T12:45:54;1.58;;;0.93;;
17361;SDS011;8798;51.938;4.348;2022-08-01T12:48:23;3.22;;;1.00;;
17361;SDS011;8798;51.938;4.348;2022-08-01T12:50:52;2.63;;;0.75;;
17361;SDS011;8798;51.938;4.348;2022-08-01T12:53:25;2.47;;;0.88;;
17361;SDS011;8798;51.938;4.348;2022-08-01T12:56:06;1.58;;;0.80;;
17361;SDS011;8798;51.938;4.348;2022-08-01T12:58:35;1.90;;;0.70;;
17361;SDS011;8798;51.938;4.348;2022-08-01T13:01:04;1.25;;;0.80;;
17361;SDS011;8798;51.938;4.348;2022-08-01T13:03:33;1.52;;;0.60;;
17361;SDS011;8798;51.938;4.348;2022-08-01T13:06:09;1.95;;;0.82;;
17361;SDS011;8798;51.938;4.348;2022-08-01T13:08:39;3.13;;;1.15;;
17361;SDS011;8798;51.938;4.348;2022-08-01T13:11:08;3.75;;;1.17;;
17361;SDS011;8798;51.938;4.348;2022-08-01T13:13:41;2.00;;;1.02;;
17361;SDS011;8798;51.938;4.348;2022-08-01T13:16:10;3.03;;;1.02;;
17361;SDS011;8798;51.938;4.348;2022-08-01T13:18:58;2.20;;;1.10;;
17361;SDS011;8798;51.938;4.348;2022-08-01T13:21:27;1.17;;;0.70;;
17361;SDS011;8798;51.938;4.348;2022-08-01T13:24:22;1.10;;;0.80;;
17361;SDS011;8798;51.938;4.348;2022-08-01T13:26:52;2.10;;;0.90;;
17361;SDS011;8798;51.938;4.348;2022-08-01T13:29:28;1.75;;;1.00;;
17361;SDS011;8798;51.938;4.348;2022-08-01T13:31:57;3.00;;;0.90;;
17361;SDS011;8798;51.938;4.348;2022-08-01T13:34:29;6.03;;;0.88;;
17361;SDS011;8798;51.938;4.348;2022-08-01T13:36:58;5.38;;;1.25;;
17361;SDS011;8798;51.938;4.348;2022-08-01T13:39:29;2.92;;;1.00;;
17361;SDS011;8798;51.938;4.348;2022-08-01T13:42:11;5.35;;;1.23;;
17361;SDS011;8798;51.938;4.348;2022-08-01T13:44:44;7.28;;;0.98;;
17361;SDS011;8798;51.938;4.348;2022-08-01T13:47:12;3.67;;;0.98;;
17361;SDS011;8798;51.938;4.348;2022-08-01T13:49:42;2.30;;;0.85;;
17361;SDS011;8798;51.938;4.348;2022-08-01T13:52:11;3.17;;;1.15;;
17361;SDS011;8798;51.938;4.348;2022-08-01T13:54:40;1.35;;;0.90;;
17361;SDS011;8798;51.938;4.348;2022-08-01T13:57:08;1.80;;;1.10;;
17361;SDS011;8798;51.938;4.348;2022-08-01T13:59:36;1.42;;;0.80;;
17361;SDS011;8798;51.938;4.348;2022-08-01T14:02:04;3.13;;;1.02;;
17361;SDS011;8798;51.938;4.348;2022-08-01T14:04:32;2.30;;;0.90;;
17361;SDS011;8798;51.938;4.348;2022-08-01T14:07:00;1.52;;;1.10;;
17361;SDS011;8798;51.938;4.348;2022-08-01T14:09:41;2.97;;;1.20;;
17361;SDS011;8798;51.938;4.348;2022-08-01T14:12:28;1.17;;;0.80;;
17361;SDS011;8798;51.938;4.348;2022-08-01T14:14:58;4.25;;;1.10;;
17361;SDS011;8798;51.938;4.348;2022-08-01T14:17:26;5.88;;;0.90;;
17361;SDS011;8798;51.938;4.348;2022-08-01T14:19:54;3.10;;;0.95;;
17361;SDS011;8798;51.938;4.348;2022-08-01T14:22:25;1.60;;;0.77;;
17361;SDS011;8798;51.938;4.348;2022-08-01T14:24:54;1.65;;;0.90;;
17361;SDS011;8798;51.938;4.348;2022-08-01T14:27:28;2.30;;;0.98;;
17361;SDS011;8798;51.938;4.348;2022-08-01T14:29:57;1.55;;;0.90;;
17361;SDS011;8798;51.938;4.348;2022-08-01T14:32:28;1.80;;;1.08;;
17361;SDS011;8798;51.938;4.348;2022-08-01T14:34:56;3.55;;;1.08;;
17361;SDS011;8798;51.938;4.348;2022-08-01T14:37:24;2.58;;;1.25;;
17361;SDS011;8798;51.938;4.348;2022-08-01T14:39:57;0.77;;;0.70;;
17361;SDS011;8798;51.938;4.348;2022-08-01T14:42:26;1.80;;;0.90;;
17361;SDS011;8798;51.938;4.348;2022-08-01T14:44:54;1.58;;;0.80;;
17361;SDS011;8798;51.938;4.348;2022-08-01T14:47:22;1.23;;;0.82;;
17361;SDS011;8798;51.938;4.348;2022-08-01T14:49:50;2.03;;;0.98;;
17361;SDS011;8798;51.938;4.348;2022-08-01T14:52:18;1.83;;;0.90;;
17361;SDS011;8798;51.938;4.348;2022-08-01T14:54:47;2.30;;;0.80;;
17361;SDS011;8798;51.938;4.348;2022-08-01T14:57:16;1.38;;;0.82;;
17361;SDS011;8798;51.938;4.348;2022-08-01T14:59:45;5.03;;;1.30;;
17361;SDS011;8798;51.938;4.348;2022-08-01T15:02:13;3.00;;;1.00;;
17361;SDS011;8798;51.938;4.348;2022-08-01T15:04:43;1.10;;;0.80;;
17361;SDS011;8798;51.938;4.348;2022-08-01T15:07:11;4.13;;;0.90;;
17361;SDS011;8798;51.938;4.348;2022-08-01T15:09:39;2.08;;;1.05;;
17361;SDS011;8798;51.938;4.348;2022-08-01T15:12:08;2.28;;;0.95;;
17361;SDS011;8798;51.938;4.348;2022-08-01T15:14:39;3.38;;;1.00;;
17361;SDS011;8798;51.938;4.348;2022-08-01T15:17:16;2.08;;;0.80;;
17361;SDS011;8798;51.938;4.348;2022-08-01T15:19:48;2.33;;;0.80;;
17361;SDS011;8798;51.938;4.348;2022-08-01T15:22:16;3.88;;;1.00;;
17361;SDS011;8798;51.938;4.348;2022-08-01T15:24:44;2.10;;;0.80;;
17361;SDS011;8798;51.938;4.348;2022-08-01T15:27:13;2.08;;;1.20;;
17361;SDS011;8798;51.938;4.348;2022-08-01T15:29:42;2.45;;;0.88;;
17361;SDS011;8798;51.938;4.348;2022-08-01T15:32:13;3.92;;;1.00;;
17361;SDS011;8798;51.938;4.348;2022-08-01T15:34:41;1.63;;;0.80;;
17361;SDS011;8798;51.938;4.348;2022-08-01T15:37:10;0.90;;;0.80;;